createdAt,value
2022-08-25T00:01:35.788Z,23.60
2022-08-25T00:04:06.742Z,23.60
2022-08-25T00:06:34.797Z,23.60
2022-08-25T00:09:02.484Z,23.60
2022-08-25T00:11:31.739Z,23.60
2022-08-25T00:14:01.438Z,23.60
2022-08-25T00:16:31.612Z,23.60
2022-08-25T00:19:01.392Z,23.50
2022-08-25T00:21:29.971Z,23.50
2022-08-25T00:23:57.622Z,23.50
2022-08-25T00:26:26.515Z,23.50
2022-08-25T00:28:54.479Z,23.50
2022-08-25T00:31:38.669Z,23.50
2022-08-25T00:34:12.133Z,23.40
2022-08-25T00:36:40.069Z,23.40
2022-08-25T00:39:09.080Z,23.40
2022-08-25T00:41:37.304Z,23.40
2022-08-25T00:44:06.588Z,23.40
2022-08-25T00:46:36.867Z,23.40
2022-08-25T00:49:16.373Z,23.30
2022-08-25T00:51:55.868Z,23.40
2022-08-25T00:54:25.990Z,23.30
2022-08-25T00:56:55.136Z,23.30
2022-08-25T00:59:23.496Z,23.30
2022-08-25T01:01:52.146Z,23.20
2022-08-25T01:04:20.014Z,23.30
2022-08-25T01:06:49.516Z,23.20
2022-08-25T01:09:18.392Z,23.20
2022-08-25T01:11:46.668Z,23.20
2022-08-25T01:14:16.472Z,23.20
2022-08-25T01:16:44.969Z,23.10
2022-08-25T01:19:15.390Z,23.10
2022-08-25T01:21:45.213Z,23.10
2022-08-25T01:24:17.748Z,23.10
2022-08-25T01:26:45.402Z,23.10
2022-08-25T01:29:22.591Z,23.10
2022-08-25T01:31:51.421Z,23.10
2022-08-25T01:34:20.177Z,23.00
2022-08-25T01:36:47.824Z,23.00
2022-08-25T01:39:15.801Z,23.00
2022-08-25T01:41:51.319Z,23.00
2022-08-25T01:44:19.407Z,23.00
2022-08-25T01:46:47.090Z,23.00
2022-08-25T01:49:14.678Z,22.90
2022-08-25T01:51:48.617Z,22.90
2022-08-25T01:54:16.270Z,22.90
2022-08-25T01:56:43.898Z,22.90
2022-08-25T01:59:11.930Z,22.90
2022-08-25T02:01:40.101Z,22.90
2022-08-25T02:04:07.880Z,22.90
2022-08-25T02:06:36.307Z,22.90
2022-08-25T02:09:09.442Z,22.90
2022-08-25T02:11:38.398Z,22.90
2022-08-25T02:14:06.266Z,22.80
2022-08-25T02:16:35.394Z,22.80
2022-08-25T02:19:03.083Z,22.80
2022-08-25T02:21:30.935Z,22.80
2022-08-25T02:24:13.851Z,22.80
2022-08-25T02:26:41.680Z,22.80
2022-08-25T02:29:10.004Z,22.80
2022-08-25T02:31:38.483Z,22.70
2022-08-25T02:34:06.760Z,22.70
2022-08-25T02:36:35.094Z,22.70
2022-08-25T02:39:02.768Z,22.60
2022-08-25T02:41:33.425Z,22.60
2022-08-25T02:44:01.792Z,22.60
2022-08-25T02:46:29.752Z,22.60
2022-08-25T02:48:58.113Z,22.60
2022-08-25T02:51:26.173Z,22.60
2022-08-25T02:53:54.160Z,22.60
2022-08-25T02:56:21.752Z,22.50
2022-08-25T02:58:49.993Z,22.50
2022-08-25T03:01:17.770Z,22.50
2022-08-25T03:03:47.101Z,22.50
2022-08-25T03:06:17.041Z,22.50
2022-08-25T03:08:45.310Z,22.50
2022-08-25T03:11:13.332Z,22.50
2022-08-25T03:13:41.769Z,22.50
2022-08-25T03:16:11.168Z,22.50
2022-08-25T03:18:40.562Z,22.50
2022-08-25T03:21:08.562Z,22.40
2022-08-25T03:23:36.685Z,22.40
2022-08-25T03:26:22.589Z,22.40
2022-08-25T03:28:50.625Z,22.40
2022-08-25T03:31:19.173Z,22.40
2022-08-25T03:33:47.273Z,22.40
2022-08-25T03:36:14.962Z,22.30
2022-08-25T03:38:42.934Z,22.30
2022-08-25T03:41:18.106Z,22.30
2022-08-25T03:43:47.595Z,22.30
2022-08-25T03:46:33.631Z,22.30
2022-08-25T03:49:02.111Z,22.20
2022-08-25T03:51:31.423Z,22.20
2022-08-25T03:53:59.615Z,22.20
2022-08-25T03:56:28.019Z,22.10
2022-08-25T03:58:56.612Z,22.10
2022-08-25T04:01:25.328Z,22.00
2022-08-25T04:03:53.540Z,22.00
2022-08-25T04:06:23.008Z,22.00
2022-08-25T04:08:52.861Z,21.90
2022-08-25T04:11:22.660Z,21.80
2022-08-25T04:13:50.833Z,21.80
2022-08-25T04:16:19.899Z,21.90
2022-08-25T04:18:48.536Z,21.80
2022-08-25T04:21:17.329Z,21.80
2022-08-25T04:23:45.872Z,21.80
2022-08-25T04:26:15.585Z,21.80
2022-08-25T04:28:43.337Z,21.70
2022-08-25T04:31:12.242Z,21.70
2022-08-25T04:33:40.096Z,21.70
2022-08-25T04:36:12.265Z,21.70
2022-08-25T04:38:41.621Z,21.70
2022-08-25T04:41:10.639Z,21.60
2022-08-25T04:43:39.014Z,21.60
2022-08-25T04:46:11.487Z,21.60
2022-08-25T04:48:39.959Z,21.60
2022-08-25T04:51:08.997Z,21.60
2022-08-25T04:53:36.674Z,21.60
2022-08-25T04:56:07.457Z,21.50
2022-08-25T04:58:35.486Z,21.50
2022-08-25T05:01:15.820Z,21.40
2022-08-25T05:03:44.378Z,21.50
2022-08-25T05:06:16.058Z,21.40
2022-08-25T05:08:45.716Z,21.40
2022-08-25T05:11:15.808Z,21.40
2022-08-25T05:13:44.062Z,21.40
2022-08-25T05:16:20.079Z,21.30
2022-08-25T05:18:48.455Z,21.30
2022-08-25T05:21:17.279Z,21.20
2022-08-25T05:23:45.375Z,21.30
2022-08-25T05:26:19.565Z,21.20
2022-08-25T05:28:48.503Z,21.20
2022-08-25T05:31:16.360Z,21.20
2022-08-25T05:33:44.429Z,21.20
2022-08-25T05:36:13.059Z,21.20
2022-08-25T05:38:41.974Z,21.20
2022-08-25T05:41:11.000Z,21.10
2022-08-25T05:43:40.039Z,21.10
2022-08-25T05:46:08.540Z,21.10
2022-08-25T05:48:36.940Z,21.10
2022-08-25T05:51:06.573Z,21.00
2022-08-25T05:53:35.020Z,21.10
2022-08-25T05:56:03.441Z,21.10
2022-08-25T05:58:31.475Z,21.10
2022-08-25T06:01:20.092Z,21.10
2022-08-25T06:03:47.906Z,21.10
2022-08-25T06:06:16.809Z,21.10
2022-08-25T06:08:45.213Z,21.20
2022-08-25T06:11:13.739Z,21.10
2022-08-25T06:13:41.578Z,21.10
2022-08-25T06:16:09.285Z,21.20
2022-08-25T06:18:37.053Z,21.20
2022-08-25T06:21:09.174Z,21.20
2022-08-25T06:23:38.071Z,21.30
2022-08-25T06:26:06.386Z,21.20
2022-08-25T06:28:34.091Z,21.30
2022-08-25T06:31:03.396Z,21.30
2022-08-25T06:33:31.463Z,21.30
2022-08-25T06:35:59.851Z,21.30
2022-08-25T06:38:27.917Z,21.40
2022-08-25T06:40:56.981Z,21.40
2022-08-25T06:43:25.248Z,21.50
2022-08-25T06:45:52.959Z,21.50
2022-08-25T06:48:20.540Z,21.60
2022-08-25T06:50:48.569Z,21.70
2022-08-25T06:53:16.457Z,21.70
2022-08-25T06:55:44.208Z,21.70
2022-08-25T06:58:11.808Z,21.90
2022-08-25T07:00:39.515Z,21.90
2022-08-25T07:03:07.249Z,22.00
2022-08-25T07:05:43.582Z,22.00
2022-08-25T07:08:12.417Z,22.20
2022-08-25T07:10:40.073Z,22.20
2022-08-25T07:13:07.740Z,22.30
2022-08-25T07:15:38.896Z,22.40
2022-08-25T07:18:07.414Z,22.50
2022-08-25T07:20:36.313Z,22.60
2022-08-25T07:23:04.041Z,22.70
2022-08-25T07:25:31.870Z,22.90
2022-08-25T07:27:59.814Z,23.00
2022-08-25T07:30:28.102Z,23.10
2022-08-25T07:32:55.752Z,23.30
2022-08-25T07:35:26.327Z,23.40
2022-08-25T07:37:57.109Z,23.50
2022-08-25T07:40:25.716Z,23.60
2022-08-25T07:42:55.167Z,23.70
2022-08-25T07:45:30.390Z,23.80
2022-08-25T07:48:06.699Z,23.90
2022-08-25T07:50:34.734Z,23.90
2022-08-25T07:53:03.107Z,24.00
2022-08-25T07:55:31.398Z,24.00
2022-08-25T07:58:00.502Z,24.10
2022-08-25T08:00:30.154Z,24.10
2022-08-25T08:02:58.561Z,24.20
2022-08-25T08:05:26.679Z,24.20
2022-08-25T08:07:54.915Z,24.30
2022-08-25T08:13:12.063Z,24.30
2022-08-25T08:15:46.089Z,24.30
2022-08-25T08:18:13.771Z,24.40
2022-08-25T08:20:44.704Z,24.40
2022-08-25T08:23:12.841Z,24.50
2022-08-25T08:25:40.478Z,24.50
2022-08-25T08:28:08.352Z,24.50
2022-08-25T08:30:38.667Z,24.50
2022-08-25T08:33:10.041Z,24.60
2022-08-25T08:35:38.919Z,24.60
2022-08-25T08:38:14.507Z,24.60
2022-08-25T08:41:13.736Z,24.70
2022-08-25T08:43:43.321Z,24.70
2022-08-25T08:46:11.521Z,24.80
2022-08-25T08:48:57.028Z,24.80
2022-08-25T08:51:33.099Z,24.80
2022-08-25T08:54:05.004Z,24.90
2022-08-25T08:56:37.392Z,25.00
2022-08-25T08:59:18.932Z,25.00
2022-08-25T09:02:00.921Z,25.10
2022-08-25T09:04:40.911Z,25.10
2022-08-25T09:07:12.534Z,25.10
2022-08-25T09:09:41.901Z,25.20
2022-08-25T09:12:18.526Z,25.20
2022-08-25T09:15:12.593Z,25.30
2022-08-25T09:17:54.586Z,25.40
2022-08-25T09:20:38.792Z,25.40
2022-08-25T09:23:25.604Z,25.50
2022-08-25T09:26:12.083Z,25.60
2022-08-25T09:28:45.855Z,25.70
2022-08-25T09:31:19.698Z,25.70
2022-08-25T09:33:47.458Z,25.80
2022-08-25T09:36:15.196Z,25.90
2022-08-25T09:38:42.843Z,26.00
2022-08-25T09:41:11.794Z,26.00
2022-08-25T09:43:44.437Z,26.10
2022-08-25T09:46:20.508Z,26.20
2022-08-25T09:48:56.606Z,26.30
2022-08-25T09:51:27.259Z,26.40
2022-08-25T09:53:54.899Z,26.40
2022-08-25T09:56:24.435Z,26.50
2022-08-25T09:58:54.147Z,26.60
2022-08-25T10:01:24.178Z,26.70
2022-08-25T10:04:00.125Z,26.70
2022-08-25T10:06:34.676Z,27.00
2022-08-25T10:09:05.866Z,27.00
2022-08-25T10:11:40.192Z,27.00
2022-08-25T10:14:19.578Z,27.10
2022-08-25T10:16:49.161Z,27.60
2022-08-25T10:19:23.408Z,27.70
2022-08-25T10:22:04.140Z,27.50
2022-08-25T10:24:32.441Z,27.70
2022-08-25T10:27:07.956Z,27.90
2022-08-25T10:29:38.789Z,28.00
2022-08-25T10:32:13.419Z,28.10
2022-08-25T10:34:55.143Z,28.10
2022-08-25T10:37:38.204Z,28.40
2022-08-25T10:40:11.133Z,28.60
2022-08-25T10:42:50.202Z,28.60
2022-08-25T10:45:40.320Z,28.70
2022-08-25T10:48:26.915Z,28.80
2022-08-25T10:51:01.036Z,28.80
2022-08-25T10:53:31.900Z,29.00
2022-08-25T10:56:25.990Z,29.10
2022-08-25T10:59:13.211Z,29.10
2022-08-25T11:01:44.051Z,29.30
2022-08-25T11:04:45.295Z,29.30
2022-08-25T11:07:20.850Z,29.40
2022-08-25T11:09:51.226Z,29.60
2022-08-25T11:12:23.694Z,29.70
2022-08-25T11:14:54.535Z,29.80
2022-08-25T11:17:28.823Z,29.90
2022-08-25T11:19:58.822Z,29.80
2022-08-25T11:22:43.259Z,30.00
2022-08-25T11:25:11.283Z,30.10
2022-08-25T11:27:46.175Z,30.20
2022-08-25T11:30:16.084Z,30.10
2022-08-25T11:32:46.320Z,30.40
2022-08-25T11:35:17.503Z,30.40
2022-08-25T11:38:04.617Z,30.50
2022-08-25T11:40:51.919Z,30.60
2022-08-25T11:43:35.587Z,30.80
2022-08-25T11:46:07.318Z,30.80
2022-08-25T11:48:39.813Z,30.90
2022-08-25T11:51:09.647Z,31.00
2022-08-25T11:53:42.193Z,31.10
2022-08-25T11:56:12.929Z,31.10
2022-08-25T11:58:50.011Z,31.20
2022-08-25T12:01:30.400Z,31.30
2022-08-25T12:04:27.642Z,31.30
2022-08-25T12:07:04.485Z,31.40
2022-08-25T12:09:33.210Z,31.50
2022-08-25T12:12:20.849Z,31.70
2022-08-25T12:14:48.977Z,31.70
2022-08-25T12:17:25.556Z,31.90
2022-08-25T12:19:54.789Z,31.90
2022-08-25T12:22:22.777Z,32.10
2022-08-25T12:25:00.107Z,32.10
2022-08-25T12:27:28.144Z,32.20
2022-08-25T12:30:08.458Z,32.20
2022-08-25T12:32:46.034Z,32.50
2022-08-25T12:35:13.635Z,32.50
2022-08-25T12:38:17.342Z,32.60
2022-08-25T12:40:45.610Z,32.70
2022-08-25T12:43:27.863Z,32.80
2022-08-25T12:46:20.058Z,32.90
2022-08-25T12:48:57.185Z,33.00
2022-08-25T12:51:29.681Z,33.10
2022-08-25T12:54:12.225Z,33.10
2022-08-25T12:56:47.668Z,33.30
2022-08-25T12:59:18.253Z,33.40
2022-08-25T13:01:58.342Z,33.50
2022-08-25T13:04:49.112Z,33.60
2022-08-25T13:07:20.548Z,33.60
2022-08-25T13:10:07.132Z,33.80
2022-08-25T13:12:40.902Z,33.80
2022-08-25T13:15:13.929Z,33.90
2022-08-25T13:17:41.844Z,33.90
2022-08-25T13:20:24.693Z,34.00
2022-08-25T13:22:57.359Z,33.90
2022-08-25T13:25:30.112Z,33.90
2022-08-25T13:28:02.432Z,34.00
2022-08-25T13:30:30.053Z,33.90
2022-08-25T13:32:58.077Z,34.10
2022-08-25T13:35:30.898Z,34.00
2022-08-25T13:38:15.122Z,34.00
2022-08-25T13:40:43.087Z,33.90
2022-08-25T13:43:13.155Z,33.90
2022-08-25T13:45:44.424Z,33.80
2022-08-25T13:48:22.988Z,33.70
2022-08-25T13:50:54.047Z,33.70
2022-08-25T13:53:26.707Z,33.70
2022-08-25T13:56:02.423Z,33.60
2022-08-25T13:58:44.505Z,33.60
2022-08-25T14:01:23.687Z,33.40
2022-08-25T14:04:22.419Z,33.30
2022-08-25T14:06:50.876Z,33.20
2022-08-25T14:09:27.015Z,33.20
2022-08-25T14:11:57.947Z,33.00
2022-08-25T14:14:25.592Z,33.10
2022-08-25T14:17:16.353Z,32.90
2022-08-25T14:19:53.924Z,32.80
2022-08-25T14:22:21.800Z,32.70
2022-08-25T14:24:49.587Z,32.60
2022-08-25T14:27:18.811Z,32.70
2022-08-25T14:29:51.023Z,32.50
2022-08-25T14:32:20.452Z,32.50
2022-08-25T14:34:48.219Z,32.40
2022-08-25T14:37:20.683Z,32.70
2022-08-25T14:39:54.494Z,32.70
2022-08-25T14:42:25.370Z,32.20
2022-08-25T14:44:54.044Z,32.10
2022-08-25T14:47:24.500Z,32.50
2022-08-25T14:49:52.200Z,32.40
2022-08-25T14:52:22.725Z,32.30
2022-08-25T14:54:50.513Z,32.00
2022-08-25T14:57:18.493Z,32.00
2022-08-25T14:59:46.140Z,31.90
2022-08-25T15:02:20.124Z,32.00
2022-08-25T15:04:53.517Z,31.90
2022-08-25T15:07:39.700Z,32.00
2022-08-25T15:10:08.021Z,32.00
2022-08-25T15:12:47.443Z,31.70
2022-08-25T15:15:15.904Z,31.70
2022-08-25T15:17:45.546Z,31.60
2022-08-25T15:20:13.666Z,31.60
2022-08-25T15:22:48.029Z,31.30
2022-08-25T15:25:16.322Z,31.20
2022-08-25T15:27:46.992Z,31.60
2022-08-25T15:30:15.122Z,31.10
2022-08-25T15:32:42.974Z,31.30
2022-08-25T15:35:12.439Z,31.50
2022-08-25T15:37:43.551Z,31.20
2022-08-25T15:40:14.290Z,31.20
2022-08-25T15:42:48.055Z,31.20
2022-08-25T15:45:15.758Z,31.20
2022-08-25T15:47:43.436Z,31.00
2022-08-25T15:50:16.070Z,31.20
2022-08-25T15:52:46.648Z,31.00
2022-08-25T15:55:15.248Z,30.60
2022-08-25T15:57:43.619Z,30.80
2022-08-25T16:00:12.180Z,30.60
2022-08-25T16:02:41.739Z,30.80
2022-08-25T16:05:10.191Z,30.70
2022-08-25T16:07:39.048Z,30.70
2022-08-25T16:10:06.881Z,30.50
2022-08-25T16:12:34.885Z,30.60
2022-08-25T16:15:03.227Z,30.60
2022-08-25T16:17:31.264Z,30.40
2022-08-25T16:19:59.428Z,30.20
2022-08-25T16:22:27.429Z,30.50
2022-08-25T16:24:56.218Z,30.20
2022-08-25T16:27:24.536Z,30.40
2022-08-25T16:29:52.387Z,30.20
2022-08-25T16:32:20.785Z,30.10
2022-08-25T16:34:48.773Z,30.00
2022-08-25T16:37:16.777Z,30.30
2022-08-25T16:39:45.813Z,30.00
2022-08-25T16:42:14.379Z,30.00
2022-08-25T16:44:42.302Z,30.10
2022-08-25T16:47:10.758Z,30.00
2022-08-25T16:49:42.323Z,29.70
2022-08-25T16:52:28.364Z,29.90
2022-08-25T16:55:15.304Z,29.70
2022-08-25T16:57:47.447Z,29.70
2022-08-25T17:00:17.239Z,29.70
2022-08-25T17:02:45.384Z,30.00
2022-08-25T17:05:13.219Z,29.90
2022-08-25T17:07:41.479Z,29.90
2022-08-25T17:10:12.862Z,29.50
2022-08-25T17:12:41.129Z,29.40
2022-08-25T17:15:09.411Z,29.30
2022-08-25T17:17:37.331Z,29.50
2022-08-25T17:20:05.405Z,29.60
2022-08-25T17:22:33.513Z,29.20
2022-08-25T17:25:02.612Z,29.50
2022-08-25T17:27:35.099Z,29.40
2022-08-25T17:30:03.475Z,29.30
2022-08-25T17:32:31.831Z,29.40
2022-08-25T17:35:00.674Z,29.30
2022-08-25T17:37:32.528Z,29.40
2022-08-25T17:40:03.205Z,29.10
2022-08-25T17:42:31.883Z,28.80
2022-08-25T17:45:00.320Z,29.00
2022-08-25T17:47:28.437Z,28.80
2022-08-25T17:49:56.156Z,28.80
2022-08-25T17:52:25.656Z,28.80
2022-08-25T17:54:53.493Z,28.80
2022-08-25T17:57:22.212Z,28.90
2022-08-25T17:59:49.913Z,28.80
2022-08-25T18:02:17.884Z,28.60
2022-08-25T18:04:45.666Z,28.80
2022-08-25T18:07:14.017Z,28.40
2022-08-25T18:09:42.053Z,28.80
2022-08-25T18:12:10.046Z,28.30
2022-08-25T18:14:39.629Z,28.30
2022-08-25T18:17:07.801Z,28.10
2022-08-25T18:19:35.462Z,28.20
2022-08-25T18:22:06.373Z,28.30
2022-08-25T18:24:35.426Z,28.20
2022-08-25T18:27:06.027Z,28.20
2022-08-25T18:29:34.175Z,27.80
2022-08-25T18:32:02.162Z,27.90
2022-08-25T18:34:32.714Z,28.00
2022-08-25T18:37:20.751Z,27.70
2022-08-25T18:40:06.734Z,27.90
2022-08-25T18:42:34.957Z,27.40
2022-08-25T18:45:03.055Z,27.60
2022-08-25T18:47:30.978Z,27.40
2022-08-25T18:50:02.581Z,27.30
2022-08-25T18:52:32.169Z,27.30
2022-08-25T18:55:00.170Z,27.30
2022-08-25T18:57:28.351Z,27.30
2022-08-25T18:59:56.667Z,27.20
2022-08-25T19:02:27.737Z,26.90
2022-08-25T19:05:01.804Z,26.90
2022-08-25T19:07:35.232Z,27.00
2022-08-25T19:10:08.252Z,26.90
2022-08-25T19:12:39.036Z,26.90
2022-08-25T19:15:09.517Z,26.80
2022-08-25T19:17:38.716Z,26.70
2022-08-25T19:23:19.368Z,26.60
2022-08-25T19:25:49.741Z,26.40
2022-08-25T19:28:17.504Z,26.30
2022-08-25T19:30:49.977Z,26.40
2022-08-25T19:33:42.101Z,26.40
2022-08-25T19:36:09.458Z,26.30
2022-08-25T19:38:37.614Z,26.50
2022-08-25T19:41:13.817Z,26.30
2022-08-25T19:43:50.661Z,26.30
2022-08-25T19:46:23.722Z,26.30
2022-08-25T19:48:51.438Z,26.30
2022-08-25T19:51:21.996Z,26.10
2022-08-25T19:53:54.062Z,26.20
2022-08-25T19:56:25.082Z,26.00
2022-08-25T19:58:52.735Z,26.10
2022-08-25T20:01:23.248Z,26.10
2022-08-25T20:03:52.182Z,26.00
2022-08-25T20:06:19.932Z,25.90
2022-08-25T20:08:47.697Z,26.00
2022-08-25T20:11:27.438Z,25.90
2022-08-25T20:13:55.059Z,26.00
2022-08-25T20:16:23.224Z,25.90
2022-08-25T20:18:56.642Z,25.80
2022-08-25T20:21:25.146Z,25.80
2022-08-25T20:24:10.805Z,25.70
2022-08-25T20:26:38.497Z,25.70
2022-08-25T20:29:11.134Z,25.60
2022-08-25T20:31:41.943Z,25.50
2022-08-25T20:34:13.778Z,25.50
2022-08-25T20:36:50.062Z,25.50
2022-08-25T20:39:20.071Z,25.40
2022-08-25T20:41:48.641Z,25.40
2022-08-25T20:44:18.547Z,25.30
2022-08-25T20:46:54.716Z,25.30
2022-08-25T20:49:25.134Z,25.30
2022-08-25T20:51:56.059Z,25.30
2022-08-25T20:54:26.780Z,25.30
2022-08-25T20:57:00.890Z,25.20
2022-08-25T20:59:32.396Z,25.30
2022-08-25T21:02:00.135Z,25.20
2022-08-25T21:04:48.937Z,25.10
2022-08-25T21:07:20.564Z,25.10
2022-08-25T21:09:48.955Z,25.10
2022-08-25T21:12:16.996Z,25.10
2022-08-25T21:14:44.879Z,25.10
2022-08-25T21:17:12.938Z,24.90
2022-08-25T21:19:41.716Z,24.90
2022-08-25T21:22:10.692Z,24.80
2022-08-25T21:24:39.205Z,24.80
2022-08-25T21:27:07.024Z,24.80
2022-08-25T21:29:35.197Z,24.80
2022-08-25T21:32:03.204Z,24.70
2022-08-25T21:34:31.964Z,24.50
2022-08-25T21:37:00.191Z,24.50
2022-08-25T21:39:29.982Z,24.40
2022-08-25T21:42:00.431Z,24.40
2022-08-25T21:44:29.641Z,24.30
2022-08-25T21:46:57.429Z,24.40
2022-08-25T21:49:25.256Z,24.20
2022-08-25T21:52:02.458Z,24.20
2022-08-25T21:54:33.058Z,24.20
2022-08-25T21:57:02.158Z,24.20
2022-08-25T21:59:31.403Z,24.10
2022-08-25T22:02:00.574Z,24.10
2022-08-25T22:04:29.078Z,24.10
2022-08-25T22:06:58.069Z,24.10
2022-08-25T22:09:26.187Z,24.00
2022-08-25T22:11:56.072Z,24.00
2022-08-25T22:14:24.504Z,24.00
2022-08-25T22:16:54.799Z,24.00
2022-08-25T22:19:23.045Z,23.90
2022-08-25T22:21:51.317Z,24.10
2022-08-25T22:24:19.212Z,23.90
2022-08-25T22:26:47.686Z,24.00
2022-08-25T22:29:23.174Z,23.90
2022-08-25T22:31:59.589Z,24.00
2022-08-25T22:34:33.101Z,23.90
2022-08-25T22:37:01.967Z,23.80
2022-08-25T22:39:34.310Z,23.80
2022-08-25T22:42:02.665Z,23.90
2022-08-25T22:44:30.825Z,23.90
2022-08-25T22:46:58.489Z,23.80
2022-08-25T22:49:28.905Z,24.00
2022-08-25T22:51:56.840Z,24.00
2022-08-25T22:54:25.576Z,24.00
2022-08-25T22:56:53.734Z,23.90
2022-08-25T22:59:22.435Z,24.00
2022-08-25T23:01:52.256Z,23.80
2022-08-25T23:04:20.623Z,23.90
2022-08-25T23:06:48.453Z,23.90
2022-08-25T23:09:16.169Z,23.90
2022-08-25T23:11:43.973Z,23.90
2022-08-25T23:14:11.899Z,23.80
2022-08-25T23:16:43.881Z,23.90
2022-08-25T23:19:13.740Z,23.90
2022-08-25T23:21:59.453Z,23.80
2022-08-25T23:24:30.356Z,23.90
2022-08-25T23:26:59.802Z,23.80
2022-08-25T23:29:29.075Z,24.00
2022-08-25T23:31:57.550Z,23.90
2022-08-25T23:34:25.878Z,23.90
2022-08-25T23:36:53.945Z,23.80
2022-08-25T23:39:22.202Z,23.90
2022-08-25T23:41:50.500Z,23.80
2022-08-25T23:44:18.974Z,23.70
2022-08-25T23:46:47.883Z,23.70
2022-08-25T23:49:18.505Z,23.80
2022-08-25T23:51:47.549Z,23.80
2022-08-25T23:54:16.002Z,23.60
2022-08-25T23:56:51.631Z,23.70
2022-08-25T23:59:24.899Z,23.80
